Time;durP1;ratioP1;P1;durP2;ratioP2;P2;SDS_P1;SDS_P2;PMS_P1;PMS_P2;Temp;Humidity;BMP_temperature;BMP_pressure;BME280_temperature;BME280_humidity;BME280_pressure;Samples;Min_cycle;Max_cycle;Signal;HPM_P1;HPM_P2
2021/06/26 00:02:14;;;;;;;;;10.00;10.00;;;;;18.88;71.63;101026.06;4915813;28;45455;-79
2021/06/26 00:04:39;;;;;;;;;8.00;7.25;;;;;19.07;71.87;101058.59;4915024;28;46446;-80
2021/06/26 00:07:05;;;;;;;;;9.00;7.00;;;;;19.05;71.38;101057.94;4915237;28;46261;-80
2021/06/26 00:09:30;;;;;;;;;7.00;6.50;;;;;19.08;72.02;101059.44;4915368;28;45641;-79
2021/06/26 00:11:56;;;;;;;;;6.25;6.25;;;;;19.09;72.01;101055.78;4917125;28;45565;-79
2021/06/26 00:14:21;;;;;;;;;6.25;6.25;;;;;19.11;71.67;101067.09;4915866;28;46112;-79
2021/06/26 00:16:47;;;;;;;;;5.75;5.75;;;;;19.11;71.61;101064.47;4915675;28;45658;-79
2021/06/26 00:19:12;;;;;;;;;8.25;8.25;;;;;18.89;72.10;101030.38;4915526;28;45710;-79
2021/06/26 00:21:41;;;;;;;;;6.25;6.25;;;;;19.09;71.96;101069.91;4916595;28;45736;-80
2021/06/26 00:27:30;;;;;;;;;6.50;6.50;;;;;19.07;71.93;101063.06;4920606;28;46045;-80
2021/06/26 00:29:55;;;;;;;;;9.00;7.50;;;;;19.06;72.21;101066.69;4921764;28;45634;-78
2021/06/26 00:32:21;;;;;;;;;7.50;7.50;;;;;19.04;72.23;101069.53;4922106;28;45823;-79
2021/06/26 00:34:46;;;;;;;;;9.00;7.25;;;;;19.01;72.11;101069.81;4920974;28;46615;-78
2021/06/26 00:37:11;;;;;;;;;12.00;11.25;;;;;18.98;72.24;101058.69;4920165;28;45681;-79
2021/06/26 00:42:59;;;;;;;;;10.00;9.25;;;;;19.05;72.07;101054.44;4918199;28;45733;-79
2021/06/26 00:45:25;;;;;;;;;8.50;8.50;;;;;19.04;72.34;101050.94;4918609;28;46476;-78
2021/06/26 00:47:51;;;;;;;;;9.00;8.00;;;;;19.05;72.05;101044.66;4918205;28;46825;-79
2021/06/26 00:50:20;;;;;;;;;9.75;8.50;;;;;19.05;71.88;101035.84;4918166;28;45644;-78
2021/06/26 00:52:47;;;;;;;;;7.25;7.00;;;;;18.98;72.37;101021.50;4917973;28;45707;-79
2021/06/26 00:55:13;;;;;;;;;8.75;8.00;;;;;19.06;72.16;101043.63;4918094;28;46550;-78
2021/06/26 00:57:43;;;;;;;;;8.25;6.50;;;;;18.96;72.35;101029.59;4918298;28;46064;-81
2021/06/26 01:00:10;;;;;;;;;10.75;8.25;;;;;19.00;72.39;101033.63;4918271;28;45597;-79
2021/06/26 01:02:36;;;;;;;;;8.50;8.25;;;;;18.97;72.33;101025.13;4918316;28;45748;-80
2021/06/26 01:05:02;;;;;;;;;9.50;8.50;;;;;18.98;72.16;101022.34;4918245;28;46356;-79
2021/06/26 01:07:27;;;;;;;;;8.00;7.75;;;;;19.00;72.20;101030.16;4917685;28;45869;-79
2021/06/26 01:09:53;;;;;;;;;10.00;7.00;;;;;19.01;72.60;101031.81;4918281;28;45941;-79
2021/06/26 01:12:18;;;;;;;;;8.00;8.00;;;;;18.91;72.27;101015.97;4918470;28;45811;-79
2021/06/26 01:14:44;;;;;;;;;8.50;7.50;;;;;18.92;72.56;101012.31;4918575;28;46370;-78
2021/06/26 01:17:09;;;;;;;;;10.00;9.00;;;;;18.79;72.61;100996.78;4901123;28;46897;-78
2021/06/26 01:19:36;;;;;;;;;9.00;9.00;;;;;19.03;72.65;101029.84;4918624;28;45583;-79
2021/06/26 01:22:05;;;;;;;;;10.50;10.00;;;;;19.04;72.21;101028.84;4919005;28;45643;-80
2021/06/26 01:27:54;;;;;;;;;10.00;9.25;;;;;19.01;72.35;101018.53;4916523;28;45616;-80
2021/06/26 01:30:37;;;;;;;;;8.25;8.00;;;;;18.99;72.75;101009.91;4917703;28;45577;-80
2021/06/26 01:33:04;;;;;;;;;10.25;7.75;;;;;19.06;72.93;101014.41;4917755;28;45729;-79
2021/06/26 01:35:30;;;;;;;;;7.50;7.25;;;;;19.07;72.50;101005.47;4917591;28;46718;-79
2021/06/26 01:37:57;;;;;;;;;10.50;9.50;;;;;18.84;72.61;100975.91;4917279;28;45627;-80
2021/06/26 01:40:25;;;;;;;;;9.75;9.00;;;;;19.09;72.29;101013.28;4916531;28;45677;-80
2021/06/26 01:42:53;;;;;;;;;10.00;9.00;;;;;19.09;72.24;101013.28;4917615;28;45887;-79
2021/06/26 01:45:19;;;;;;;;;8.50;8.25;;;;;19.10;72.58;101004.34;4917309;28;47026;-80
2021/06/26 01:47:53;;;;;;;;;11.00;10.50;;;;;19.11;72.89;101006.00;4917108;28;45886;-80
2021/06/26 01:50:20;;;;;;;;;7.00;7.00;;;;;19.11;72.38;101006.00;4917575;28;45695;-79
2021/06/26 01:52:48;;;;;;;;;9.25;8.25;;;;;19.11;72.77;101004.16;4917528;28;45591;-79
2021/06/26 01:55:17;;;;;;;;;10.50;9.75;;;;;18.96;72.42;100987.13;4916947;28;46519;-80
2021/06/26 01:57:44;;;;;;;;;14.75;13.50;;;;;19.09;72.57;101008.81;4916604;28;46029;-79
2021/06/26 02:00:10;;;;;;;;;10.50;9.75;;;;;18.97;72.31;100987.97;4917141;28;45604;-79
2021/06/26 02:02:36;;;;;;;;;10.00;10.00;;;;;19.12;72.86;101008.50;4917238;28;45745;-80
2021/06/26 02:05:03;;;;;;;;;11.75;10.25;;;;;19.09;72.57;101008.81;4917233;28;45734;-79
2021/06/26 02:07:29;;;;;;;;;11.25;11.00;;;;;19.12;72.18;101002.34;4916823;28;47530;-79
2021/06/26 02:13:16;;;;;;;;;9.75;9.50;;;;;19.10;72.59;101002.53;4916722;28;45628;-80
2021/06/26 02:15:41;;;;;;;;;9.25;8.25;;;;;19.13;72.91;101009.34;4916748;28;46222;-79
2021/06/26 02:18:06;;;;;;;;;10.00;9.50;;;;;19.12;72.36;101005.84;4916726;28;46223;-80
2021/06/26 02:20:32;;;;;;;;;10.25;10.25;;;;;19.06;72.79;100992.34;4916598;28;46264;-80
2021/06/26 02:22:57;;;;;;;;;12.00;10.50;;;;;19.13;72.62;101007.50;4917102;28;45913;-78
2021/06/26 02:25:23;;;;;;;;;10.25;9.50;;;;;19.08;72.61;100996.53;4917930;28;46814;-78
2021/06/26 02:27:48;;;;;;;;;10.75;8.75;;;;;19.02;72.82;100993.63;4899968;28;46210;-79
2021/06/26 02:30:14;;;;;;;;;7.00;6.50;;;;;18.96;72.49;100984.47;4919312;28;45645;-78
2021/06/26 02:32:40;;;;;;;;;8.25;7.25;;;;;19.05;72.55;100996.84;4922068;28;45705;-77
2021/06/26 02:35:07;;;;;;;;;8.25;8.00;;;;;19.13;72.32;101004.03;4921494;28;45606;-78
2021/06/26 02:37:32;;;;;;;;;8.00;8.00;;;;;19.11;72.47;101006.00;4921582;28;46030;-80
2021/06/26 02:43:19;;;;;;;;;7.25;6.75;;;;;19.06;72.32;100998.47;4918837;28;45808;-79
2021/06/26 02:45:46;;;;;;;;;6.75;6.75;;;;;19.09;72.83;100995.53;4917189;28;46271;-80
2021/06/26 02:48:13;;;;;;;;;8.00;6.75;;;;;19.05;72.79;100991.53;4899346;28;47241;-80
2021/06/26 02:50:39;;;;;;;;;9.00;9.00;;;;;19.09;72.91;101000.84;4916906;28;45742;-80
2021/06/26 02:53:04;;;;;;;;;7.50;7.50;;;;;19.08;72.68;100998.34;4916470;28;45754;-79
2021/06/26 02:55:30;;;;;;;;;7.00;6.75;;;;;19.10;72.73;101007.00;4916742;28;46347;-79
2021/06/26 02:57:57;;;;;;;;;7.25;7.00;;;;;19.09;72.65;101000.00;4915974;28;46055;-80
2021/06/26 03:00:23;;;;;;;;;8.25;7.50;;;;;19.05;72.65;100988.03;4916241;28;45958;-80
2021/06/26 03:02:48;;;;;;;;;10.00;10.00;;;;;19.05;72.33;100991.53;4916367;28;45856;-80
2021/06/26 03:05:14;;;;;;;;;9.00;8.00;;;;;19.05;72.93;100988.88;4916235;28;46258;-81
2021/06/26 03:07:39;;;;;;;;;7.25;7.00;;;;;19.06;72.69;100987.84;4916056;28;46041;-79
2021/06/26 03:13:26;;;;;;;;;10.75;9.25;;;;;19.05;72.79;100983.56;4916656;28;45608;-79
2021/06/26 03:15:55;;;;;;;;;12.75;11.75;;;;;18.91;72.91;100962.84;4916970;28;45779;-80
2021/06/26 03:18:20;;;;;;;;;14.50;12.50;;;;;18.74;72.73;100937.16;4916750;28;45634;-80
2021/06/26 03:21:12;;;;;;;;;13.75;13.50;;;;;18.94;72.59;100978.50;4917051;28;45745;-80
2021/06/26 03:23:57;;;;;;;;;;;;;;;;;;;;;
2021/06/26 03:26:22;;;;;;;;;15.00;12.50;;;;;19.05;72.64;100999.50;4915243;28;73441;-80
2021/06/26 03:28:49;;;;;;;;;15.75;14.25;;;;;18.99;72.52;100986.84;4915171;28;46127;-80
2021/06/26 03:31:15;;;;;;;;;17.25;14.25;;;;;19.03;72.56;101001.47;4915944;28;45789;-80
2021/06/26 03:33:40;;;;;;;;;14.00;13.25;;;;;19.04;72.77;100995.16;4915791;28;45695;-81
2021/06/26 03:36:06;;;;;;;;;16.00;15.75;;;;;19.04;73.01;100992.50;4915651;28;45835;-81
2021/06/26 03:38:32;;;;;;;;;16.00;15.00;;;;;18.97;72.80;100982.66;4915550;28;45859;-79
2021/06/26 03:40:57;;;;;;;;;16.00;14.75;;;;;18.98;72.73;100979.00;4914969;28;45741;-80
2021/06/26 03:43:23;;;;;;;;;16.00;15.00;;;;;18.93;73.01;100968.00;4915732;28;45805;-80
2021/06/26 03:45:49;;;;;;;;;15.50;14.50;;;;;19.07;73.10;100991.34;4915620;28;46202;-80
2021/06/26 03:48:14;;;;;;;;;17.25;17.00;;;;;19.06;73.28;100985.22;4915266;28;45960;-79
2021/06/26 03:50:41;;;;;;;;;17.25;15.00;;;;;18.99;73.38;100978.88;4915137;28;45525;-78
2021/06/26 03:53:07;;;;;;;;;17.75;16.50;;;;;18.90;73.35;100971.78;4915406;28;45747;-81
2021/06/26 03:58:54;;;;;;;;;17.25;15.25;;;;;18.96;73.07;100983.63;4915105;28;45808;-81
2021/06/26 04:01:20;;;;;;;;;16.25;15.00;;;;;19.01;73.05;100984.84;4915466;28;45618;-80
2021/06/26 04:03:46;;;;;;;;;18.25;18.25;;;;;19.04;73.14;100995.16;4917447;28;46023;-80
2021/06/26 04:06:12;;;;;;;;;15.25;14.50;;;;;18.95;73.30;100976.69;4921547;28;46178;-80
2021/06/26 04:08:37;;;;;;;;;15.75;15.75;;;;;19.05;73.12;100998.66;4921236;28;46530;-80
2021/06/26 04:11:03;;;;;;;;;18.75;18.25;;;;;19.04;73.56;100997.81;4921394;28;45678;-80
2021/06/26 04:13:28;;;;;;;;;62.00;49.25;;;;;19.05;73.57;100996.84;4921433;28;45562;-82
2021/06/26 04:15:54;;;;;;;;;23.50;22.75;;;;;19.06;72.99;101003.78;4921547;28;45664;-80
2021/06/26 04:18:19;;;;;;;;;18.75;18.00;;;;;19.06;73.45;101005.63;4921632;28;45890;-80
2021/06/26 04:20:44;;;;;;;;;18.00;15.75;;;;;19.06;73.09;101001.13;4922181;28;45944;-80
2021/06/26 04:23:10;;;;;;;;;18.50;16.00;;;;;19.03;73.64;100995.31;4921603;28;45645;-80
2021/06/26 04:28:57;;;;;;;;;22.50;19.75;;;;;19.07;73.70;101009.94;4919303;28;45795;-80
2021/06/26 04:31:23;;;;;;;;;31.50;27.00;;;;;19.06;73.42;101008.28;4921762;28;45976;-80
2021/06/26 04:33:48;;;;;;;;;21.00;20.00;;;;;19.03;73.13;101000.63;4921307;28;45740;-80
2021/06/26 04:36:14;;;;;;;;;18.25;17.50;;;;;19.00;73.37;100996.44;4921244;28;46184;-80
2021/06/26 04:38:41;;;;;;;;;18.25;17.50;;;;;19.06;73.36;101009.09;4920971;28;46061;-79
2021/06/26 04:41:07;;;;;;;;;16.50;14.75;;;;;19.07;73.40;101005.47;4920898;28;46005;-78
2021/06/26 04:43:32;;;;;;;;;18.75;15.50;;;;;18.98;73.34;100985.16;4920971;28;45783;-78
2021/06/26 04:45:58;;;;;;;;;15.75;15.00;;;;;19.06;73.08;101006.44;4921197;28;45697;-80
2021/06/26 04:48:27;;;;;;;;;16.25;16.25;;;;;19.07;73.50;101004.63;4921176;28;45610;-79
2021/06/26 04:50:53;;;;;;;;;14.00;13.00;;;;;19.03;73.26;101004.13;4921464;28;45631;-79
2021/06/26 04:53:18;;;;;;;;;17.50;16.25;;;;;19.07;73.63;101017.91;4921489;28;45822;-80
2021/06/26 04:59:05;;;;;;;;;14.50;13.25;;;;;19.02;73.46;101012.22;4920959;28;46017;-79
2021/06/26 05:01:30;;;;;;;;;12.50;12.00;;;;;19.00;73.44;101003.59;4921003;28;45555;-79
2021/06/26 05:03:56;;;;;;;;;12.50;12.25;;;;;19.03;73.29;101008.59;4921235;28;45733;-79
2021/06/26 05:06:21;;;;;;;;;14.00;13.75;;;;;19.03;73.66;101003.28;4921109;28;47409;-80
2021/06/26 05:08:47;;;;;;;;;13.00;13.00;;;;;19.02;73.70;101001.59;4920963;28;46275;-79
2021/06/26 05:11:12;;;;;;;;;13.00;13.00;;;;;18.94;73.29;100988.28;4921626;28;45591;-79
2021/06/26 05:13:37;;;;;;;;;14.00;13.25;;;;;19.05;73.60;101001.31;4921848;28;45724;-79
2021/06/26 05:16:03;;;;;;;;;14.00;13.50;;;;;19.04;73.76;101002.31;4920613;28;45708;-80
2021/06/26 05:18:29;;;;;;;;;12.75;12.00;;;;;19.03;73.15;101008.59;4919283;28;46123;-79
2021/06/26 05:20:55;;;;;;;;;13.50;12.75;;;;;19.04;73.46;100999.66;4919596;28;45866;-80
2021/06/26 05:23:21;;;;;;;;;14.75;13.75;;;;;19.03;73.77;101012.09;4918532;28;45872;-79
2021/06/26 05:29:08;;;;;;;;;13.50;12.00;;;;;18.99;73.50;101016.03;4916812;28;45658;-80
2021/06/26 05:31:33;;;;;;;;;12.75;11.50;;;;;18.99;73.82;101017.88;4918711;28;45624;-79
2021/06/26 05:33:59;;;;;;;;;14.25;13.25;;;;;18.96;73.44;101015.50;4922459;28;45746;-79
2021/06/26 05:36:24;;;;;;;;;9.50;9.50;;;;;19.00;73.57;101017.69;4923288;28;46296;-79
2021/06/26 05:38:50;;;;;;;;;8.75;8.00;;;;;19.01;73.22;101021.19;4923297;28;45593;-79
2021/06/26 05:41:18;;;;;;;;;6.75;6.00;;;;;18.93;73.17;101003.38;4922138;28;45739;-79
2021/06/26 05:43:46;;;;;;;;;7.25;6.25;;;;;18.89;73.58;100996.72;4921295;28;45662;-78
2021/06/26 05:46:14;;;;;;;;;13.50;11.75;;;;;18.92;73.23;101014.97;4920797;28;46379;-80
2021/06/26 05:48:39;;;;;;;;;16.75;16.50;;;;;18.98;73.29;101026.81;4920829;28;45999;-78
2021/06/26 05:51:05;;;;;;;;;7.75;7.25;;;;;18.93;73.46;101016.66;4919526;28;45729;-80
2021/06/26 05:53:31;;;;;;;;;9.50;9.00;;;;;18.69;73.15;100973.94;4900865;28;45888;-78
2021/06/26 05:59:18;;;;;;;;;11.75;11.75;;;;;18.92;73.61;101011.47;4916887;28;45794;-80
2021/06/26 06:01:43;;;;;;;;;8.25;8.25;;;;;18.98;73.26;101025.00;4917496;28;45626;-79
2021/06/26 06:04:08;;;;;;;;;11.50;11.00;;;;;18.94;73.41;101015.66;4917422;28;45679;-80
2021/06/26 06:06:35;;;;;;;;;12.50;12.25;;;;;18.96;73.33;101016.34;4916963;28;46240;-80
2021/06/26 06:09:01;;;;;;;;;15.00;14.25;;;;;19.00;73.63;101025.66;4916928;28;45998;-80
2021/06/26 06:11:27;;;;;;;;;12.75;12.75;;;;;19.01;73.55;101027.31;4917079;28;45944;-80
2021/06/26 06:13:53;;;;;;;;;26.00;24.75;;;;;19.02;73.45;101028.16;4916980;28;45824;-79
2021/06/26 06:16:18;;;;;;;;;11.75;10.50;;;;;19.02;73.09;101025.50;4917158;28;45683;-79
2021/06/26 06:18:44;;;;;;;;;5.75;5.75;;;;;19.02;72.99;101025.50;4916497;28;45977;-78
2021/06/26 06:21:10;;;;;;;;;7.00;6.50;;;;;18.93;73.18;101014.00;4916899;28;45603;-78
2021/06/26 06:23:36;;;;;;;;;6.00;4.00;;;;;18.99;73.52;101023.19;4916906;28;45591;-78
2021/06/26 06:29:23;;;;;;;;;5.25;5.25;;;;;19.01;73.22;101026.50;4916000;28;45893;-79
2021/06/26 06:31:48;;;;;;;;;6.75;5.00;;;;;19.02;73.44;101033.47;4916651;28;45514;-78
2021/06/26 06:34:13;;;;;;;;;5.00;4.75;;;;;19.02;73.17;101031.66;4916626;28;45801;-78
2021/06/26 06:36:39;;;;;;;;;4.25;4.25;;;;;19.03;73.55;101030.69;4916295;28;45693;-80
2021/06/26 06:39:04;;;;;;;;;4.25;4.25;;;;;18.96;72.94;101002.22;4916745;28;46170;-79
2021/06/26 06:41:29;;;;;;;;;4.75;4.25;;;;;19.03;73.44;101014.75;4916699;28;45555;-79
2021/06/26 06:43:55;;;;;;;;;8.00;6.00;;;;;19.05;73.03;101022.56;4917189;28;45648;-79
2021/06/26 06:46:20;;;;;;;;;11.75;10.75;;;;;19.06;73.15;101017.06;4916439;28;45607;-79
2021/06/26 06:48:46;;;;;;;;;7.00;6.50;;;;;19.07;73.61;101032.03;4916600;28;45997;-79
2021/06/26 06:51:11;;;;;;;;;7.00;6.00;;;;;18.98;73.00;101009.06;4916521;28;45495;-79
2021/06/26 06:53:37;;;;;;;;;6.25;6.25;;;;;19.09;73.27;101029.22;4916947;28;45812;-79
2021/06/26 06:59:24;;;;;;;;;4.50;4.50;;;;;19.15;73.12;101034.78;4916313;28;45879;-80
2021/06/26 07:01:49;;;;;;;;;6.75;6.25;;;;;19.06;73.17;101021.56;4916575;28;45568;-79
2021/06/26 07:04:15;;;;;;;;;6.50;6.50;;;;;19.17;73.12;101030.13;4916539;28;45661;-79
2021/06/26 07:06:40;;;;;;;;;5.00;5.00;;;;;19.18;72.93;101034.44;4916805;28;46442;-80
2021/06/26 07:09:05;;;;;;;;;8.00;7.00;;;;;19.20;72.93;101043.09;4917830;28;46448;-79
2021/06/26 07:14:53;;;;;;;;;6.00;6.00;;;;;19.19;73.24;101044.09;4918199;28;45745;-79
2021/06/26 07:17:18;;;;;;;;;27.00;24.00;;;;;19.20;72.82;101044.94;4917695;28;45653;-80
2021/06/26 07:19:43;;;;;;;;;8.75;8.50;;;;;19.23;73.49;101055.25;4916596;28;46723;-79
2021/06/26 07:22:09;;;;;;;;;7.00;7.00;;;;;19.19;72.94;101041.44;4916177;28;45577;-79
2021/06/26 07:24:34;;;;;;;;;7.00;6.50;;;;;19.20;73.47;101045.78;4917492;28;45603;-79
2021/06/26 07:27:00;;;;;;;;;6.25;6.00;;;;;19.20;73.35;101043.09;4916778;28;45749;-78
2021/06/26 07:29:25;;;;;;;;;8.00;7.50;;;;;19.22;73.14;101046.44;4915747;28;46173;-78
2021/06/26 07:31:51;;;;;;;;;6.75;6.75;;;;;19.22;73.06;101046.44;4916472;28;45697;-78
2021/06/26 07:34:17;;;;;;;;;7.00;6.50;;;;;19.26;72.92;101047.81;4915908;28;45408;-80
2021/06/26 07:36:42;;;;;;;;;5.75;5.75;;;;;19.27;73.18;101049.47;4915663;28;45902;-79
2021/06/26 07:39:08;;;;;;;;;7.00;7.00;;;;;19.29;72.75;101044.00;4914833;28;45757;-79
2021/06/26 07:44:55;;;;;;;;;8.00;7.50;;;;;19.29;72.98;101041.34;4916157;28;45718;-78
2021/06/26 07:47:20;;;;;;;;;7.00;6.00;;;;;19.28;73.38;101037.00;4915495;28;46189;-79
2021/06/26 07:49:45;;;;;;;;;7.00;6.75;;;;;19.32;73.21;101042.88;4915799;28;45971;-80
2021/06/26 07:52:11;;;;;;;;;5.50;5.50;;;;;19.26;72.97;101037.19;4916011;28;45941;-79
2021/06/26 07:54:36;;;;;;;;;6.75;6.75;;;;;19.35;73.39;101045.19;4915742;28;45530;-80
2021/06/26 07:57:02;;;;;;;;;6.00;6.00;;;;;19.37;73.08;101037.91;4915537;28;45878;-78
2021/06/26 07:59:27;;;;;;;;;7.25;6.25;;;;;19.39;72.90;101041.25;4915301;28;46074;-79
2021/06/26 08:01:54;;;;;;;;;6.00;6.00;;;;;19.41;73.13;101039.28;4916131;28;45514;-78
2021/06/26 08:04:19;;;;;;;;;5.50;5.25;;;;;19.40;73.20;101035.78;4915802;28;45816;-79
2021/06/26 08:06:45;;;;;;;;;6.75;6.75;;;;;19.42;73.37;101033.81;4915507;28;45660;-78
2021/06/26 08:09:11;;;;;;;;;8.25;7.50;;;;;19.44;73.22;101033.63;4915830;28;46181;-78
2021/06/26 08:14:58;;;;;;;;;7.75;7.75;;;;;19.44;73.14;101023.00;4915465;28;45722;-79
2021/06/26 08:17:23;;;;;;;;;9.00;6.75;;;;;19.44;72.74;101029.16;4915220;28;46223;-79
2021/06/26 08:19:49;;;;;;;;;6.75;6.00;;;;;19.52;72.99;101029.25;4915878;28;46458;-79
2021/06/26 08:22:14;;;;;;;;;6.50;6.00;;;;;19.56;73.21;101024.44;4915544;28;45673;-79
2021/06/26 08:24:39;;;;;;;;;6.00;6.00;;;;;19.55;73.00;101017.47;4915414;28;45726;-79
2021/06/26 08:27:05;;;;;;;;;6.75;6.50;;;;;19.65;73.24;101028.81;4915169;28;46193;-80
2021/06/26 08:29:31;;;;;;;;;5.00;4.00;;;;;19.69;72.85;101016.91;4914613;28;45907;-80
2021/06/26 08:31:56;;;;;;;;;5.00;4.75;;;;;19.73;73.08;101015.56;4915484;28;45681;-79
2021/06/26 08:34:22;;;;;;;;;5.00;5.00;;;;;19.73;72.85;101012.09;4915472;28;45835;-79
2021/06/26 08:36:47;;;;;;;;;4.00;4.00;;;;;19.80;73.05;101023.75;4915307;28;45744;-79
2021/06/26 08:39:13;;;;;;;;;4.00;4.00;;;;;19.83;72.87;101020.78;4915681;28;46256;-79
2021/06/26 08:45:04;;;;;;;;;6.00;5.00;;;;;19.94;72.75;101031.13;4915104;28;46088;-80
2021/06/26 08:47:29;;;;;;;;;5.25;5.00;;;;;19.96;72.49;101034.47;4915209;28;45633;-79
2021/06/26 08:49:55;;;;;;;;;7.00;6.00;;;;;19.94;72.51;101037.28;4916156;28;45993;-78
2021/06/26 08:52:21;;;;;;;;;3.75;3.50;;;;;19.96;72.32;101048.63;4918717;28;45767;-80
2021/06/26 08:54:53;;;;;;;;;6.50;5.50;;;;;19.95;72.41;101046.09;4919937;28;45507;-78
2021/06/26 08:57:26;;;;;;;;;5.75;4.75;;;;;19.96;72.40;101039.81;4919477;28;45928;-78
2021/06/26 08:59:51;;;;;;;;;6.75;6.00;;;;;19.97;72.25;101039.63;4921627;28;46182;-79
2021/06/26 09:02:21;;;;;;;;;6.00;5.25;;;;;19.98;72.91;101035.97;4903875;28;45746;-78
2021/06/26 09:04:46;;;;;;;;;5.00;4.50;;;;;19.99;72.29;101031.50;4922291;28;46018;-79
2021/06/26 09:07:12;;;;;;;;;8.50;7.50;;;;;20.03;72.00;101032.84;4922367;28;45780;-78
2021/06/26 09:09:38;;;;;;;;;7.25;6.00;;;;;20.05;72.04;101026.38;4921332;28;46535;-78
2021/06/26 09:15:28;;;;;;;;;5.25;5.00;;;;;20.09;71.90;101030.38;4925680;28;45635;-80
2021/06/26 09:17:56;;;;;;;;;6.25;6.00;;;;;20.08;71.93;101026.03;4922860;28;46397;-78
2021/06/26 09:20:36;;;;;;;;;4.75;4.75;;;;;20.15;71.79;101028.06;4920911;28;45984;-78
2021/06/26 09:23:04;;;;;;;;;7.00;6.75;;;;;20.13;71.58;101022.94;4918110;28;45773;-78
2021/06/26 09:25:32;;;;;;;;;7.50;6.00;;;;;20.15;71.50;101025.41;4918098;28;45780;-79
2021/06/26 09:27:59;;;;;;;;;6.00;6.00;;;;;20.19;71.44;101016.13;4918291;28;47584;-80
2021/06/26 09:30:40;;;;;;;;;6.75;6.75;;;;;20.16;71.47;101003.97;4917784;28;46614;-79
2021/06/26 09:33:10;;;;;;;;;6.00;5.50;;;;;20.21;71.43;100998.16;4917659;28;45780;-78
2021/06/26 09:35:36;;;;;;;;;6.50;6.00;;;;;20.27;71.53;100994.84;4917774;28;45756;-79
2021/06/26 09:38:07;;;;;;;;;7.25;7.00;;;;;20.38;71.53;101016.72;4917429;28;45594;-79
2021/06/26 09:40:33;;;;;;;;;9.50;8.00;;;;;20.43;71.46;101008.22;4917161;28;46189;-79
2021/06/26 09:42:59;;;;;;;;;7.25;7.25;;;;;20.46;71.27;101011.38;4917030;28;45803;-79
2021/06/26 09:45:24;;;;;;;;;3.75;3.50;;;;;20.43;71.26;101008.22;4917756;28;45823;-79
2021/06/26 09:47:50;;;;;;;;;8.00;7.50;;;;;20.53;71.07;101015.06;4917317;28;45621;-78
2021/06/26 09:50:16;;;;;;;;;4.50;4.00;;;;;20.61;71.02;101024.91;4917646;28;45982;-79
2021/06/26 09:52:47;;;;;;;;;9.00;8.00;;;;;20.48;70.82;101004.09;4917219;28;45902;-79
2021/06/26 09:55:13;;;;;;;;;5.25;5.25;;;;;20.68;70.84;101027.72;4917155;28;45695;-79
2021/06/26 09:57:39;;;;;;;;;7.00;6.50;;;;;20.64;70.45;101027.25;4899819;28;46585;-78
2021/06/26 10:00:05;;;;;;;;;6.50;6.00;;;;;20.65;70.50;101020.94;4900211;28;46532;-79
2021/06/26 10:02:31;;;;;;;;;8.25;6.75;;;;;20.72;70.32;101032.59;4916193;28;45653;-78
2021/06/26 10:04:57;;;;;;;;;7.75;7.00;;;;;20.77;70.45;101040.94;4917568;28;45602;-79
2021/06/26 10:07:23;;;;;;;;;7.75;6.50;;;;;20.69;70.41;101024.91;4917118;28;46599;-79
2021/06/26 10:09:49;;;;;;;;;8.50;6.50;;;;;20.82;70.38;101038.59;4917367;28;46046;-80
2021/06/26 10:15:36;;;;;;;;;9.25;6.25;;;;;20.86;70.13;101042.59;4917063;28;45556;-80
2021/06/26 10:18:01;;;;;;;;;7.00;7.00;;;;;20.87;69.83;101040.75;4899859;28;47161;-78
2021/06/26 10:20:28;;;;;;;;;6.00;5.75;;;;;20.88;69.77;101027.28;4916836;28;46099;-80
2021/06/26 10:22:59;;;;;;;;;6.75;6.00;;;;;20.90;69.79;101030.59;4899876;28;45840;-79
2021/06/26 10:25:33;;;;;;;;;6.00;6.00;;;;;20.88;69.91;101023.78;4915846;28;45872;-80
2021/06/26 10:28:13;;;;;;;;;8.75;8.00;;;;;20.91;69.56;101032.28;4916660;28;45558;-78
2021/06/26 10:30:39;;;;;;;;;8.50;7.00;;;;;20.96;69.59;101029.09;4916752;28;46016;-79
2021/06/26 10:33:08;;;;;;;;;6.25;5.00;;;;;20.97;69.41;101025.44;4899564;28;45866;-79
2021/06/26 10:35:36;;;;;;;;;7.00;5.75;;;;;21.01;69.26;101021.44;4917058;28;45641;-79
2021/06/26 10:38:12;;;;;;;;;5.50;4.75;;;;;21.07;69.24;101026.13;4916493;28;46621;-80
2021/06/26 10:40:59;;;;;;;;;8.00;7.00;;;;;21.13;69.32;101030.78;4916543;28;45832;-79
2021/06/26 10:43:30;;;;;;;;;8.75;8.25;;;;;21.17;68.97;101034.78;4917034;28;45814;-78
2021/06/26 10:46:13;;;;;;;;;7.25;6.75;;;;;21.17;69.01;101021.47;4919097;28;45600;-79
2021/06/26 10:48:40;;;;;;;;;6.00;6.00;;;;;21.09;68.86;100996.66;4918380;28;46800;-78
2021/06/26 10:51:06;;;;;;;;;8.00;8.00;;;;;21.26;68.59;101020.50;4918257;28;46288;-78
2021/06/26 10:53:34;;;;;;;;;6.00;6.00;;;;;21.27;68.67;101019.47;4917180;28;45789;-78
2021/06/26 10:56:05;;;;;;;;;7.00;7.00;;;;;21.32;68.28;101019.00;4917679;28;45813;-78
2021/06/26 10:58:33;;;;;;;;;9.50;9.50;;;;;21.31;68.77;101022.66;4900084;28;48399;-79
2021/06/26 11:01:13;;;;;;;;;31.75;30.50;;;;;21.29;68.41;101001.47;4916982;28;46049;-79
2021/06/26 11:03:39;;;;;;;;;8.00;7.25;;;;;21.42;68.34;101027.63;4917231;28;45655;-78
2021/06/26 11:06:19;;;;;;;;;8.25;7.75;;;;;21.41;68.00;101015.28;4918638;28;45658;-79
2021/06/26 11:08:56;;;;;;;;;7.00;7.00;;;;;21.47;68.12;101019.97;4901285;28;47878;-79
2021/06/26 11:11:36;;;;;;;;;7.50;7.50;;;;;21.43;67.81;101001.81;4919443;28;46043;-78
2021/06/26 11:14:12;;;;;;;;;7.50;6.50;;;;;21.48;67.78;101000.28;4919190;28;45601;-80
2021/06/26 11:16:40;;;;;;;;;7.75;6.25;;;;;21.57;67.84;101001.94;4918890;28;45585;-78
2021/06/26 11:19:05;;;;;;;;;6.00;6.00;;;;;21.61;68.18;101000.56;4917601;28;46282;-77
2021/06/26 11:21:52;;;;;;;;;6.00;6.00;;;;;21.70;67.98;101002.22;4917726;28;46072;-80
2021/06/26 11:24:19;;;;;;;;;8.00;7.00;;;;;21.71;67.35;100989.72;4918084;28;45711;-80
2021/06/26 11:26:50;;;;;;;;;7.50;7.00;;;;;21.74;67.64;100992.06;4917554;28;45762;-80
2021/06/26 11:29:32;;;;;;;;;6.25;6.25;;;;;21.82;67.12;100991.16;4916654;28;46475;-79
2021/06/26 11:32:00;;;;;;;;;8.00;8.00;;;;;21.88;67.54;100993.16;4898838;28;46694;-80
2021/06/26 11:34:26;;;;;;;;;9.25;8.25;;;;;21.86;66.65;100984.50;4916220;28;45831;-79
2021/06/26 11:37:00;;;;;;;;;13.00;11.75;;;;;21.98;66.60;100991.13;4916235;28;45827;-79
2021/06/26 11:39:26;;;;;;;;;8.50;8.25;;;;;21.95;66.54;100983.50;4916289;28;46665;-79
2021/06/26 11:41:52;;;;;;;;;24.75;21.75;;;;;22.07;66.61;100998.97;4915661;28;46362;-79
2021/06/26 11:44:17;;;;;;;;;35.25;32.75;;;;;22.07;66.36;100984.78;4915697;28;45788;-78
2021/06/26 11:46:43;;;;;;;;;13.25;12.00;;;;;22.13;66.87;100984.09;4916526;28;45836;-79
2021/06/26 11:49:08;;;;;;;;;13.75;13.50;;;;;22.20;66.70;100987.69;4916565;28;45526;-79
2021/06/26 11:51:34;;;;;;;;;12.00;12.00;;;;;22.21;66.57;100978.69;4915925;28;46197;-79
2021/06/26 11:53:59;;;;;;;;;13.25;12.00;;;;;22.15;66.13;100976.72;4916543;28;45584;-77
2021/06/26 11:56:24;;;;;;;;;13.50;12.75;;;;;22.26;66.26;100996.84;4916694;28;45537;-79
2021/06/26 11:58:52;;;;;;;;;12.75;12.25;;;;;22.27;65.95;100994.00;4916662;28;46492;-79
2021/06/26 12:01:26;;;;;;;;;12.50;11.50;;;;;22.30;66.73;100995.47;4916785;28;47107;-78
2021/06/26 12:03:52;;;;;;;;;15.00;12.00;;;;;22.32;66.19;100999.66;4917103;28;45604;-79
2021/06/26 12:06:18;;;;;;;;;13.75;12.25;;;;;22.32;66.53;100993.47;4916513;28;45944;-79
2021/06/26 12:08:46;;;;;;;;;14.00;12.50;;;;;22.37;66.66;101001.78;4917438;28;47038;-78
2021/06/26 12:11:18;;;;;;;;;13.25;12.25;;;;;22.42;66.22;101004.75;4917940;28;45956;-79
2021/06/26 12:13:46;;;;;;;;;12.00;11.00;;;;;22.43;66.61;101014.44;4918769;28;45699;-79
2021/06/26 12:16:18;;;;;;;;;12.25;11.50;;;;;22.38;66.58;100993.63;4919597;28;45668;-78
2021/06/26 12:19:10;;;;;;;;;14.75;12.25;;;;;22.50;65.88;101005.56;4919766;28;47560;-78
2021/06/26 12:21:41;;;;;;;;;13.00;13.00;;;;;22.46;66.09;100985.53;4918939;28;46708;-77
2021/06/26 12:24:07;;;;;;;;;11.75;11.75;;;;;22.62;65.73;101002.47;4918571;28;45775;-77
2021/06/26 12:26:33;;;;;;;;;13.25;11.75;;;;;22.68;65.56;101002.59;4921365;28;45646;-79